Terminal Aerodrome Forecast
Issued by NWS Chicago, IL

Home | Current Version | Previous Version | Text Only | Print | Product List | Glossary On
Versions: 1 2 3 4 5 6 7 8 9 10 11 12 13 14 15 16 17 18 19 20 21 22 23 24 25 26 27 28 29 30 31 32
104
FTUS43 KLOT 221457 AAA
TAFRFD
TAF AMD
KRFD 221457Z 2215/2312 35005KT 1SM BR OVC006
      TEMPO 2215/2216 3/4SM BR VV003
     FM221800 36008KT 6SM BR OVC010
     FM230500 35008KT 3SM BR OVC007=

USA.gov is the U.S. government's official web portal to all federal, state and local government web resources and services.